Terminal Aerodrome Forecast
Issued by NWS

Home | Current Version | Previous Version | Text Only | Print | Product List | Glossary On
Versions: 1 2 3 4 5 6 7 8 9 10 11 12 13 14 15 16 17 18 19 20 21 22 23 24 25 26 27 28 29 30 31 32 33 34
000
FTUS41 KPBZ 171135
TAFMGW
TAF
KMGW 171135Z 1712/1812 22005KT P6SM VCSH SCT015 OVC050
      TEMPO 1712/1714 BKN015
     FM171700 21007G15KT P6SM VCTS OVC045CB
     FM172300 22006KT 6SM -SHRA VCTS OVC035CB
     FM180800 24005KT 6SM -SHRA VCTS OVC025CB=

USA.gov is the U.S. government's official web portal to all federal, state and local government web resources and services.